AIRPORT ID: KRPX

DATE: 2023-03-29 ZULU TIME: 13.55 LOCAL TIME: 7.55


METAR KRPX 291355Z AUTO 00000KT 10SM M06/M11 A2993

ALTIMETER: A2993 Q1014

DENSITY ALT: 1900 Ft

WIND DIRECT: 40

WIND SPEED: 1 Gust

WIND CONDITIONS:

VISIBILTY: 10SM 9999M

TEMPERATURE: 21 F -6 C

DEW POINT: 13 F -11 C

HUMID: 71%

LCL: Above 5,000 feet

RADIO CHECK: 0

ADVISARIES: 0

GREETINGS: 0

CONVERSATIONS: 0